Crystal Symphony — C6MY5 — position and weather

sailwx.info

Track history (hours):
 
Tides and Currents Weather Stations Pressure Air Temp Water Temp Dewpoint Dewpoint Depression Visibility Wind Speed Wind Dir Waves Ship Positions

Crystal Symphony

Operator: Crystal Cruises

Last reported at 2019-Aug-20 10:30 UTC. Time now 2019-Aug-20 10:55 UTC.
Position N 49°08' W 123°27'.

Length 238 m; draft 8 m.

Type: Ship. MMSI: 309168000.

Date/timePositionNaut miles runAvg speedWind from/ knotsBaromVisibWave heightAir tempDewpointWater temp
2019-Aug-20 10:30N 49°08' W 123°27'612.7
2019-Aug-20 10:01N 49°03' W 123°20'713.4
2019-Aug-20 09:30N 48°59' W 123°12'713.3
2019-Aug-20 09:01N 48°54' W 123°05'612.9
2019-Aug-20 08:31N 48°49' W 122°60'511.0
2019-Aug-20 08:00N 48°45' W 123°05'611.6
2019-Aug-20 07:30N 48°42' W 123°13'511.0
2019-Aug-20 07:00N 48°37' W 123°14'612.5
2019-Aug-20 06:30N 48°31' W 123°11'612.3
2019-Aug-20 06:00N 48°25' W 123°11'612.2
2019-Aug-20 05:30N 48°22' W 123°19'4 8.6
2019-Aug-20 05:00N 48°25' W 123°24'0 0.2
2019-Aug-20 04:28N 48°25' W 123°24'0 0.0
2019-Aug-20 03:58N 48°25' W 123°24'0 0.0
2019-Aug-20 03:28N 48°25' W 123°24'0 0.0
2019-Aug-20 02:58N 48°25' W 123°24'0 0.0
2019-Aug-20 02:30N 48°25' W 123°24'0 0.0
2019-Aug-20 02:00N 48°25' W 123°24'0 0.0
2019-Aug-20 01:30N 48°25' W 123°24'0 0.0
2019-Aug-20 01:00N 48°25' W 123°24'0 0.0
2019-Aug-20 00:30N 48°25' W 123°24'0 0.0
2019-Aug-19 23:59N 48°25' W 123°24'0 0.0
2019-Aug-19 23:29N 48°25' W 123°24'0 0.0
2019-Aug-19 22:59N 48°25' W 123°24'0 0.0
2019-Aug-19 22:29N 48°25' W 123°24'0 0.0
2019-Aug-19 21:58N 48°25' W 123°24'0 0.0
2019-Aug-19 21:28N 48°25' W 123°24'0 0.0
2019-Aug-19 21:00N 48°25' W 123°24'0 0.0
2019-Aug-19 20:28N 48°25' W 123°24'0 0.0
2019-Aug-19 19:58N 48°25' W 123°24'0 0.0
2019-Aug-19 19:30N 48°25' W 123°24'0 0.0
2019-Aug-19 19:00N 48°25' W 123°24'0 0.0
2019-Aug-19 18:30N 48°25' W 123°24'0 0.0
2019-Aug-19 18:00N 48°25' W 123°24'0 0.0
2019-Aug-19 17:30N 48°25' W 123°24'0 0.0
2019-Aug-19 16:59N 48°25' W 123°24'0 0.0
2019-Aug-19 16:29N 48°25' W 123°24'0 0.0
2019-Aug-19 15:59N 48°25' W 123°24'0 0.0
2019-Aug-19 15:29N 48°25' W 123°24'0 0.0
2019-Aug-19 14:58N 48°25' W 123°24'0 0.4
2019-Aug-19 14:30N 48°25' W 123°24'4 7.7
2019-Aug-19 14:00N 48°21' W 123°24'611.5
2019-Aug-19 13:30N 48°16' W 123°27'612.4
2019-Aug-19 12:59N 48°14' W 123°36'612.2
2019-Aug-19 12:30N 48°13' W 123°45'712.6
2019-Aug-19 11:58N 48°13' W 123°55'714.4
2019-Aug-19 11:30N 48°16' W 124°04'917.3
2019-Aug-19 11:00N 48°20' W 124°16'816.7
2019-Aug-19 10:31N 48°23' W 124°27'816.2
2019-Aug-19 10:00N 48°27' W 124°38'815.9
2019-Aug-19 09:30N 48°29' W 124°50'917.1
2019-Aug-19 09:01N 48°29' W 125°03'816.1
2019-Aug-19 08:30N 48°30' W 125°15'816.3
2019-Aug-19 08:00N 48°34' W 125°26'816.7
2019-Aug-19 07:30N 48°38' W 125°36'816.7
2019-Aug-19 07:00N 48°43' W 125°47'816.9
2019-Aug-19 06:31N 48°48' W 125°57'916.9
2019-Aug-19 06:00N 48°53' W 126°07'917.2
2019-Aug-19 05:30N 48°58' W 126°18'917.5
2019-Aug-19 05:00N 49°03' W 126°29'1317.4
2019-Aug-19 04:17N 49°11' W 126°44'11016.9
2019-Aug-18 21:46N 50°22' W 128°53'516.5
2019-Aug-18 21:28N 50°26' W 128°59'1916.8
2019-Aug-18 20:19N 50°39' W 129°21'915.5
2019-Aug-18 19:43N 50°48' W 129°26'315.6
2019-Aug-18 19:30N 50°51' W 129°28'816.1
2019-Aug-18 19:00N 50°58' W 129°33'816.4
2019-Aug-18 18:30N 51°06' W 129°38'2216.6
2019-Aug-18 17:09N 51°27' W 129°51'617.7
2019-Aug-18 16:48N 51°33' W 129°54'517.6
2019-Aug-18 16:30N 51°37' W 129°57'10017.0
2019-Aug-18 10:38N 53°11' W 130°54'1516.2
2019-Aug-18 09:43N 53°25' W 131°01'315.8
2019-Aug-18 09:30N 53°28' W 131°02'815.7
2019-Aug-18 09:01N 53°36' W 131°03'816.1
2019-Aug-18 08:30N 53°44' W 131°05'816.4
2019-Aug-18 08:00N 53°52' W 131°06'1716.9
2019-Aug-18 07:01N 54°09' W 131°04'816.9
2019-Aug-18 06:30N 54°18' W 131°06'917.0
2019-Aug-18 06:00N 54°25' W 131°12'816.5
2019-Aug-18 05:30N 54°33' W 131°18'816.0
2019-Aug-18 05:00N 54°39' W 131°27'271 5.6
2019-Aug-16 04:20N 58°18' W 136°14'513.7
2019-Aug-16 04:00N 58°20' W 136°06'612.7
2019-Aug-16 03:30N 58°19' W 135°54'713.4
2019-Aug-16 02:59N 58°17' W 135°41'1112.8
2019-Aug-16 02:10N 58°11' W 135°25'1 0.0
2019-Aug-15 14:57N 58°12' W 135°24'614.3
2019-Aug-15 14:30N 58°15' W 135°35'714.2
2019-Aug-15 14:00N 58°18' W 135°47'714.4
2019-Aug-15 13:30N 58°19' W 136°00'8 1.2
2019-Aug-15 06:41N 58°18' W 136°16'418.3
2019-Aug-15 06:29N 58°19' W 136°09'816.2
2019-Aug-15 06:01N 58°19' W 135°55'918.4
2019-Aug-15 05:30N 58°17' W 135°38'54 1.1
2019-Aug-13 06:00N 58°00' W 134°00'228 9.7 140 / 51019.410.8 16.7 13.4
2019-Aug-12 06:30N 54°25' W 131°42'919.2
2019-Aug-12 06:00N 54°23' W 131°27'1019.1
2019-Aug-12 05:30N 54°20' W 131°11'816.0
2019-Aug-12 05:00N 54°14' W 131°02'1019.4
2019-Aug-12 04:30N 54°04' W 131°03'1019.5
2019-Aug-12 04:00N 53°54' W 131°02'1019.7
2019-Aug-12 03:30N 53°44' W 131°02'1020.0
2019-Aug-12 03:00N 53°34' W 131°01'2019.1
2019-Aug-12 01:58N 53°15' W 130°54'7719.0
2019-Aug-11 21:54N 52°06' W 129°57'819.5
2019-Aug-11 21:30N 51°59' W 129°51'1019.3
2019-Aug-11 21:00N 51°50' W 129°44'918.9
2019-Aug-11 20:30N 51°42' W 129°36'918.8
2019-Aug-11 20:00N 51°34' W 129°29'918.4
2019-Aug-11 19:30N 51°27' W 129°20'918.7
2019-Aug-11 19:00N 51°20' W 129°09'1019.3
2019-Aug-11 18:30N 51°14' W 128°57'1019.4
2019-Aug-11 18:00N 51°11' W 128°43'1019.3
2019-Aug-11 17:30N 51°08' W 128°28'1019.2
2019-Aug-11 17:00N 51°05' W 128°13'1019.1
2019-Aug-11 16:30N 51°03' W 127°59'917.3
2019-Aug-11 16:00N 50°58' W 127°47'9916.6
2019-Aug-11 10:05N 50°18' W 125°25'417.7
2019-Aug-11 09:52N 50°15' W 125°23'616.1
2019-Aug-11 09:30N 50°09' W 125°21'612.4
2019-Aug-11 09:00N 50°04' W 125°15'611.5
2019-Aug-11 08:30N 49°59' W 125°11'612.1
2019-Aug-11 08:00N 49°55' W 125°05'612.4
2019-Aug-11 07:30N 49°50' W 124°58'712.9
2019-Aug-11 07:00N 49°46' W 124°51'1911.6
2019-Aug-11 05:22N 49°33' W 124°30'611.2
2019-Aug-11 04:49N 49°28' W 124°23'412.7
2019-Aug-11 04:30N 49°26' W 124°18'714.4
2019-Aug-11 04:00N 49°24' W 124°07'166.2
2019-Aug-11 04:00N 49°24' W 124°06'613.0 130 / 101013.827.0 18.3 18.7
2019-Aug-11 03:30N 49°23' W 123°56'714.1
2019-Aug-11 03:00N 49°22' W 123°46'714.1
2019-Aug-11 02:30N 49°21' W 123°35'713.4
2019-Aug-11 02:00N 49°19' W 123°25'612.8
2019-Aug-11 01:30N 49°19' W 123°15'611.3
2019-Aug-11 01:00N 49°18' W 123°07'1 1.5
2019-Aug-11 00:30N 49°17' W 123°06'0 0.0
2019-Aug-11 00:00N 49°17' W 123°06'0 0.0
2019-Aug-10 23:27N 49°17' W 123°06'0 0.0
2019-Aug-10 22:56N 49°17' W 123°06'0 0.0
2019-Aug-10 22:26N 49°17' W 123°06'0 0.0
2019-Aug-10 21:59N 49°17' W 123°06'0 0.0
2019-Aug-10 21:29N 49°17' W 123°06'0 0.0
2019-Aug-10 20:56N 49°17' W 123°06'0 0.0
2019-Aug-10 20:25N 49°17' W 123°06'0 0.0
2019-Aug-10 19:52N 49°17' W 123°06'0 0.0
2019-Aug-10 19:25N 49°17' W 123°06'0 0.0
2019-Aug-10 18:58N 49°17' W 123°06'0 0.0
2019-Aug-10 18:27N 49°17' W 123°06'0 0.0
2019-Aug-10 18:00N 49°17' W 123°06'0 0.0
2019-Aug-10 17:30N 49°17' W 123°06'0 0.0
2019-Aug-10 17:00N 49°17' W 123°06'0 0.0
2019-Aug-10 16:24N 49°17' W 123°06'0 0.0
2019-Aug-10 15:59N 49°17' W 123°06'0 0.0
2019-Aug-10 15:29N 49°17' W 123°06'0 0.0
2019-Aug-10 14:59N 49°17' W 123°06'0 0.0
2019-Aug-10 14:29N 49°17' W 123°06'0 0.0
2019-Aug-10 13:58N 49°17' W 123°06'2 3.7
2019-Aug-10 13:30N 49°19' W 123°08'4 7.6
2019-Aug-10 13:00N 49°19' W 123°14'3 5.9
2019-Aug-10 12:30N 49°18' W 123°18'3 5.7
2019-Aug-10 12:00N 49°18' W 123°23'3 6.4
2019-Aug-10 11:30N 49°17' W 123°27'3 6.0
2019-Aug-10 11:00N 49°15' W 123°31'  
Track history (hours):
 
Tides and Currents Weather Stations Pressure Air Temp Water Temp Dewpoint Dewpoint Depression Visibility Wind Speed Wind Dir Waves Ship Positions

Crystal Symphony

Operator: Crystal Cruises

Last reported at 2019-Aug-20 10:30 UTC. Time now 2019-Aug-20 10:55 UTC.
Position N 49°08' W 123°27'.

Length 238 m; draft 8 m.

Type: Ship. MMSI: 309168000.

Date/timePositionNaut miles runAvg speedWind from/ knotsBaromVisibWave heightAir tempDewpointWater temp
2019-Aug-20 10:30N 49°08' W 123°27'612.7
2019-Aug-20 10:01N 49°03' W 123°20'713.4
2019-Aug-20 09:30N 48°59' W 123°12'713.3
2019-Aug-20 09:01N 48°54' W 123°05'612.9
2019-Aug-20 08:31N 48°49' W 122°60'511.0
2019-Aug-20 08:00N 48°45' W 123°05'611.6
2019-Aug-20 07:30N 48°42' W 123°13'511.0
2019-Aug-20 07:00N 48°37' W 123°14'612.5
2019-Aug-20 06:30N 48°31' W 123°11'612.3
2019-Aug-20 06:00N 48°25' W 123°11'612.2
2019-Aug-20 05:30N 48°22' W 123°19'4 8.6
2019-Aug-20 05:00N 48°25' W 123°24'0 0.2
2019-Aug-20 04:28N 48°25' W 123°24'0 0.0
2019-Aug-20 03:58N 48°25' W 123°24'0 0.0
2019-Aug-20 03:28N 48°25' W 123°24'0 0.0
2019-Aug-20 02:58N 48°25' W 123°24'0 0.0
2019-Aug-20 02:30N 48°25' W 123°24'0 0.0
2019-Aug-20 02:00N 48°25' W 123°24'0 0.0
2019-Aug-20 01:30N 48°25' W 123°24'0 0.0
2019-Aug-20 01:00N 48°25' W 123°24'0 0.0
2019-Aug-20 00:30N 48°25' W 123°24'0 0.0
2019-Aug-19 23:59N 48°25' W 123°24'0 0.0
2019-Aug-19 23:29N 48°25' W 123°24'0 0.0
2019-Aug-19 22:59N 48°25' W 123°24'0 0.0
2019-Aug-19 22:29N 48°25' W 123°24'0 0.0
2019-Aug-19 21:58N 48°25' W 123°24'0 0.0
2019-Aug-19 21:28N 48°25' W 123°24'0 0.0
2019-Aug-19 21:00N 48°25' W 123°24'0 0.0
2019-Aug-19 20:28N 48°25' W 123°24'0 0.0
2019-Aug-19 19:58N 48°25' W 123°24'0 0.0
2019-Aug-19 19:30N 48°25' W 123°24'0 0.0
2019-Aug-19 19:00N 48°25' W 123°24'0 0.0
2019-Aug-19 18:30N 48°25' W 123°24'0 0.0
2019-Aug-19 18:00N 48°25' W 123°24'0 0.0
2019-Aug-19 17:30N 48°25' W 123°24'0 0.0
2019-Aug-19 16:59N 48°25' W 123°24'0 0.0
2019-Aug-19 16:29N 48°25' W 123°24'0 0.0
2019-Aug-19 15:59N 48°25' W 123°24'0 0.0
2019-Aug-19 15:29N 48°25' W 123°24'0 0.0
2019-Aug-19 14:58N 48°25' W 123°24'0 0.4
2019-Aug-19 14:30N 48°25' W 123°24'4 7.7
2019-Aug-19 14:00N 48°21' W 123°24'611.5
2019-Aug-19 13:30N 48°16' W 123°27'612.4
2019-Aug-19 12:59N 48°14' W 123°36'612.2
2019-Aug-19 12:30N 48°13' W 123°45'712.6
2019-Aug-19 11:58N 48°13' W 123°55'714.4
2019-Aug-19 11:30N 48°16' W 124°04'917.3
2019-Aug-19 11:00N 48°20' W 124°16'816.7
2019-Aug-19 10:31N 48°23' W 124°27'816.2
2019-Aug-19 10:00N 48°27' W 124°38'815.9
2019-Aug-19 09:30N 48°29' W 124°50'917.1
2019-Aug-19 09:01N 48°29' W 125°03'816.1
2019-Aug-19 08:30N 48°30' W 125°15'816.3
2019-Aug-19 08:00N 48°34' W 125°26'816.7
2019-Aug-19 07:30N 48°38' W 125°36'816.7
2019-Aug-19 07:00N 48°43' W 125°47'816.9
2019-Aug-19 06:31N 48°48' W 125°57'916.9
2019-Aug-19 06:00N 48°53' W 126°07'917.2
2019-Aug-19 05:30N 48°58' W 126°18'917.5
2019-Aug-19 05:00N 49°03' W 126°29'1317.4
2019-Aug-19 04:17N 49°11' W 126°44'11016.9
2019-Aug-18 21:46N 50°22' W 128°53'516.5
2019-Aug-18 21:28N 50°26' W 128°59'1916.8
2019-Aug-18 20:19N 50°39' W 129°21'915.5
2019-Aug-18 19:43N 50°48' W 129°26'315.6
2019-Aug-18 19:30N 50°51' W 129°28'816.1
2019-Aug-18 19:00N 50°58' W 129°33'816.4
2019-Aug-18 18:30N 51°06' W 129°38'2216.6
2019-Aug-18 17:09N 51°27' W 129°51'617.7
2019-Aug-18 16:48N 51°33' W 129°54'517.6
2019-Aug-18 16:30N 51°37' W 129°57'10017.0
2019-Aug-18 10:38N 53°11' W 130°54'1516.2
2019-Aug-18 09:43N 53°25' W 131°01'315.8
2019-Aug-18 09:30N 53°28' W 131°02'815.7
2019-Aug-18 09:01N 53°36' W 131°03'816.1
2019-Aug-18 08:30N 53°44' W 131°05'816.4
2019-Aug-18 08:00N 53°52' W 131°06'1716.9
2019-Aug-18 07:01N 54°09' W 131°04'816.9
2019-Aug-18 06:30N 54°18' W 131°06'917.0
2019-Aug-18 06:00N 54°25' W 131°12'816.5
2019-Aug-18 05:30N 54°33' W 131°18'816.0
2019-Aug-18 05:00N 54°39' W 131°27'271 5.6
2019-Aug-16 04:20N 58°18' W 136°14'513.7
2019-Aug-16 04:00N 58°20' W 136°06'612.7
2019-Aug-16 03:30N 58°19' W 135°54'713.4
2019-Aug-16 02:59N 58°17' W 135°41'1112.8
2019-Aug-16 02:10N 58°11' W 135°25'1 0.0
2019-Aug-15 14:57N 58°12' W 135°24'614.3
2019-Aug-15 14:30N 58°15' W 135°35'714.2
2019-Aug-15 14:00N 58°18' W 135°47'714.4
2019-Aug-15 13:30N 58°19' W 136°00'8 1.2
2019-Aug-15 06:41N 58°18' W 136°16'418.3
2019-Aug-15 06:29N 58°19' W 136°09'816.2
2019-Aug-15 06:01N 58°19' W 135°55'918.4
2019-Aug-15 05:30N 58°17' W 135°38'54 1.1
2019-Aug-13 06:00N 58°00' W 134°00'228 9.7 140 / 51019.410.8 16.7 13.4
2019-Aug-12 06:30N 54°25' W 131°42'919.2
2019-Aug-12 06:00N 54°23' W 131°27'1019.1
2019-Aug-12 05:30N 54°20' W 131°11'816.0
2019-Aug-12 05:00N 54°14' W 131°02'1019.4
2019-Aug-12 04:30N 54°04' W 131°03'1019.5
2019-Aug-12 04:00N 53°54' W 131°02'1019.7
2019-Aug-12 03:30N 53°44' W 131°02'1020.0
2019-Aug-12 03:00N 53°34' W 131°01'2019.1
2019-Aug-12 01:58N 53°15' W 130°54'7719.0
2019-Aug-11 21:54N 52°06' W 129°57'819.5
2019-Aug-11 21:30N 51°59' W 129°51'1019.3
2019-Aug-11 21:00N 51°50' W 129°44'918.9
2019-Aug-11 20:30N 51°42' W 129°36'918.8
2019-Aug-11 20:00N 51°34' W 129°29'918.4
2019-Aug-11 19:30N 51°27' W 129°20'918.7
2019-Aug-11 19:00N 51°20' W 129°09'1019.3
2019-Aug-11 18:30N 51°14' W 128°57'1019.4
2019-Aug-11 18:00N 51°11' W 128°43'1019.3
2019-Aug-11 17:30N 51°08' W 128°28'1019.2
2019-Aug-11 17:00N 51°05' W 128°13'1019.1
2019-Aug-11 16:30N 51°03' W 127°59'917.3
2019-Aug-11 16:00N 50°58' W 127°47'9916.6
2019-Aug-11 10:05N 50°18' W 125°25'417.7
2019-Aug-11 09:52N 50°15' W 125°23'616.1
2019-Aug-11 09:30N 50°09' W 125°21'612.4
2019-Aug-11 09:00N 50°04' W 125°15'611.5
2019-Aug-11 08:30N 49°59' W 125°11'612.1
2019-Aug-11 08:00N 49°55' W 125°05'612.4
2019-Aug-11 07:30N 49°50' W 124°58'712.9
2019-Aug-11 07:00N 49°46' W 124°51'1911.6
2019-Aug-11 05:22N 49°33' W 124°30'611.2
2019-Aug-11 04:49N 49°28' W 124°23'412.7
2019-Aug-11 04:30N 49°26' W 124°18'714.4
2019-Aug-11 04:00N 49°24' W 124°07'166.2
2019-Aug-11 04:00N 49°24' W 124°06'613.0 130 / 101013.827.0 18.3 18.7
2019-Aug-11 03:30N 49°23' W 123°56'714.1
2019-Aug-11 03:00N 49°22' W 123°46'714.1
2019-Aug-11 02:30N 49°21' W 123°35'713.4
2019-Aug-11 02:00N 49°19' W 123°25'612.8
2019-Aug-11 01:30N 49°19' W 123°15'611.3
2019-Aug-11 01:00N 49°18' W 123°07'1 1.5
2019-Aug-11 00:30N 49°17' W 123°06'0 0.0
2019-Aug-11 00:00N 49°17' W 123°06'0 0.0
2019-Aug-10 23:27N 49°17' W 123°06'0 0.0
2019-Aug-10 22:56N 49°17' W 123°06'0 0.0
2019-Aug-10 22:26N 49°17' W 123°06'0 0.0
2019-Aug-10 21:59N 49°17' W 123°06'0 0.0
2019-Aug-10 21:29N 49°17' W 123°06'0 0.0
2019-Aug-10 20:56N 49°17' W 123°06'0 0.0
2019-Aug-10 20:25N 49°17' W 123°06'0 0.0
2019-Aug-10 19:52N 49°17' W 123°06'0 0.0
2019-Aug-10 19:25N 49°17' W 123°06'0 0.0
2019-Aug-10 18:58N 49°17' W 123°06'0 0.0
2019-Aug-10 18:27N 49°17' W 123°06'0 0.0
2019-Aug-10 18:00N 49°17' W 123°06'0 0.0
2019-Aug-10 17:30N 49°17' W 123°06'0 0.0
2019-Aug-10 17:00N 49°17' W 123°06'0 0.0
2019-Aug-10 16:24N 49°17' W 123°06'0 0.0
2019-Aug-10 15:59N 49°17' W 123°06'0 0.0
2019-Aug-10 15:29N 49°17' W 123°06'0 0.0
2019-Aug-10 14:59N 49°17' W 123°06'0 0.0
2019-Aug-10 14:29N 49°17' W 123°06'0 0.0
2019-Aug-10 13:58N 49°17' W 123°06'2 3.7
2019-Aug-10 13:30N 49°19' W 123°08'4 7.6
2019-Aug-10 13:00N 49°19' W 123°14'3 5.9
2019-Aug-10 12:30N 49°18' W 123°18'3 5.7
2019-Aug-10 12:00N 49°18' W 123°23'3 6.4
2019-Aug-10 11:30N 49°17' W 123°27'3 6.0
2019-Aug-10 11:00N 49°15' W 123°31'  

Dump ship's entire track history